createdAt,value
2023-01-04T00:01:17.606Z,3.26
2023-01-04T00:03:45.197Z,3.23
2023-01-04T00:06:14.650Z,3.23
2023-01-04T00:08:42.051Z,3.20
2023-01-04T00:11:21.137Z,3.19
2023-01-04T00:13:50.782Z,3.13
2023-01-04T00:16:20.292Z,3.10
2023-01-04T00:18:48.608Z,3.10
2023-01-04T00:21:19.303Z,3.11
2023-01-04T00:23:49.893Z,2.97
2023-01-04T00:26:21.040Z,2.98
2023-01-04T00:28:53.940Z,2.96
2023-01-04T00:31:21.597Z,2.93
2023-01-04T00:33:49.618Z,2.79
2023-01-04T00:36:17.200Z,2.77
2023-01-04T00:38:44.845Z,2.72
2023-01-04T00:41:34.421Z,2.71
2023-01-04T00:44:03.439Z,2.68
2023-01-04T00:46:31.674Z,2.63
2023-01-04T00:49:00.681Z,2.57
2023-01-04T00:51:29.615Z,2.53
2023-01-04T00:53:58.381Z,2.52
2023-01-04T00:56:25.595Z,2.45
2023-01-04T00:58:56.111Z,2.31
2023-01-04T01:01:24.224Z,2.30
2023-01-04T01:04:00.477Z,2.32
2023-01-04T01:06:29.323Z,2.30
2023-01-04T01:08:57.698Z,2.26
2023-01-04T01:11:25.712Z,2.18
2023-01-04T01:13:53.190Z,2.10
2023-01-04T01:16:44.257Z,2.03
2023-01-04T01:19:09.856Z,1.97
2023-01-04T01:21:38.168Z,1.96
2023-01-04T01:24:06.357Z,1.89
2023-01-04T01:26:33.977Z,1.88
2023-01-04T01:29:01.323Z,1.83
2023-01-04T01:31:29.224Z,1.80
2023-01-04T01:33:57.243Z,1.77
2023-01-04T01:36:25.712Z,1.75
2023-01-04T01:38:54.012Z,1.69
2023-01-04T01:41:27.369Z,1.64
2023-01-04T01:44:45.481Z,1.55
2023-01-04T01:47:18.950Z,1.50
2023-01-04T01:49:48.512Z,1.45
2023-01-04T01:52:19.144Z,1.35
2023-01-04T01:54:48.703Z,1.28
2023-01-04T01:57:23.696Z,1.26
2023-01-04T01:59:53.480Z,1.22
2023-01-04T02:02:21.219Z,1.17
2023-01-04T02:04:50.932Z,1.14
2023-01-04T02:07:25.207Z,1.06
2023-01-04T02:09:53.058Z,0.99
2023-01-04T02:12:20.392Z,0.99
2023-01-04T02:14:49.403Z,0.87
2023-01-04T02:17:39.878Z,0.80
2023-01-04T02:20:38.537Z,0.76
2023-01-04T02:23:45.732Z,0.67
2023-01-04T02:26:21.085Z,0.64
2023-01-04T02:28:59.936Z,0.57
2023-01-04T02:31:45.904Z,0.54
2023-01-04T02:34:56.479Z,0.46
2023-01-04T02:37:47.386Z,0.41
2023-01-04T02:40:20.583Z,0.36
2023-01-04T02:43:21.702Z,0.29
2023-01-04T02:45:59.211Z,0.26
2023-01-04T02:48:53.836Z,0.22
2023-01-04T02:51:35.696Z,0.18
2023-01-04T02:54:25.325Z,0.13
2023-01-04T02:57:15.895Z,0.10
2023-01-04T02:59:49.391Z,0.09
2023-01-04T03:03:00.458Z,0.03
2023-01-04T03:05:59.061Z,-0.01
2023-01-04T03:08:53.498Z,-0.04
2023-01-04T03:11:39.706Z,-0.06
2023-01-04T03:14:32.165Z,-0.10
2023-01-04T03:17:07.547Z,-0.12
2023-01-04T03:19:55.947Z,-0.15
2023-01-04T03:23:02.510Z,-0.21
2023-01-04T03:25:52.339Z,-0.25
2023-01-04T03:28:40.064Z,-0.29
2023-01-04T03:31:41.468Z,-0.35
2023-01-04T03:34:27.939Z,-0.38
2023-01-04T03:37:05.956Z,-0.42
2023-01-04T03:40:02.562Z,-0.49
2023-01-04T03:43:11.316Z,-0.48
2023-01-04T03:46:06.903Z,-0.50
2023-01-04T03:48:42.439Z,-0.57
2023-01-04T03:51:16.379Z,-0.63
2023-01-04T03:53:53.044Z,-0.67
2023-01-04T03:56:22.632Z,-0.68
2023-01-04T03:58:50.952Z,-0.66
2023-01-04T04:01:20.201Z,-0.70
2023-01-04T04:04:06.006Z,-0.76
2023-01-04T04:06:52.099Z,-0.82
2023-01-04T04:09:19.160Z,-0.83
2023-01-04T04:11:46.552Z,-0.84
2023-01-04T04:14:13.778Z,-0.86
2023-01-04T04:16:41.315Z,-0.88
2023-01-04T04:19:09.015Z,-0.87
2023-01-04T04:21:37.315Z,-0.88
2023-01-04T04:24:05.306Z,-0.90
2023-01-04T04:26:33.255Z,-0.92
2023-01-04T04:29:00.313Z,-0.95
2023-01-04T04:31:27.886Z,-0.95
2023-01-04T04:33:55.028Z,-1.05
2023-01-04T04:36:22.448Z,-1.02
2023-01-04T04:38:49.508Z,-1.05
2023-01-04T04:41:35.384Z,-1.07
2023-01-04T04:44:02.669Z,-1.14
2023-01-04T04:46:30.117Z,-1.12
2023-01-04T04:48:57.702Z,-1.13
2023-01-04T04:51:25.054Z,-1.16
2023-01-04T04:53:52.252Z,-1.17
2023-01-04T04:56:19.744Z,-1.19
2023-01-04T04:58:47.840Z,-1.24
2023-01-04T05:01:15.591Z,-1.26
2023-01-04T05:03:42.966Z,-1.31
2023-01-04T05:06:10.532Z,-1.33
2023-01-04T05:08:37.869Z,-1.37
2023-01-04T05:11:09.683Z,-1.40
2023-01-04T05:13:37.633Z,-1.43
2023-01-04T05:16:06.024Z,-1.47
2023-01-04T05:18:33.360Z,-1.45
2023-01-04T05:21:01.000Z,-1.43
2023-01-04T05:23:28.804Z,-1.43
2023-01-04T05:25:59.243Z,-1.47
2023-01-04T05:28:26.962Z,-1.44
2023-01-04T05:30:55.919Z,-1.47
2023-01-04T05:33:29.166Z,-1.49
2023-01-04T05:35:58.695Z,-1.51
2023-01-04T05:38:26.495Z,-1.51
2023-01-04T05:40:54.368Z,-1.58
2023-01-04T05:43:23.137Z,-1.68
2023-01-04T05:45:53.444Z,-1.65
2023-01-04T05:48:22.115Z,-1.69
2023-01-04T05:50:49.498Z,-1.70
2023-01-04T05:53:18.439Z,-1.70
2023-01-04T05:55:47.875Z,-1.75
2023-01-04T05:58:15.139Z,-1.72
2023-01-04T06:00:42.636Z,-1.75
2023-01-04T06:03:09.989Z,-1.79
2023-01-04T06:05:37.588Z,-1.76
2023-01-04T06:08:05.276Z,-1.77
2023-01-04T06:10:32.878Z,-1.82
2023-01-04T06:13:00.186Z,-1.87
2023-01-04T06:15:27.681Z,-1.91
2023-01-04T06:17:54.743Z,-1.94
2023-01-04T06:20:22.487Z,-1.94
2023-01-04T06:22:49.713Z,-2.00
2023-01-04T06:25:17.723Z,-1.99
2023-01-04T06:27:45.046Z,-2.04
2023-01-04T06:30:12.560Z,-2.03
2023-01-04T06:32:39.772Z,-2.05
2023-01-04T06:35:07.283Z,-2.10
2023-01-04T06:37:35.708Z,-2.17
2023-01-04T06:40:03.583Z,-2.14
2023-01-04T06:42:49.580Z,-2.11
2023-01-04T06:45:17.246Z,-2.12
2023-01-04T06:47:44.527Z,-2.14
2023-01-04T06:50:12.458Z,-2.12
2023-01-04T06:52:39.979Z,-2.03
2023-01-04T06:55:09.781Z,-2.00
2023-01-04T06:57:37.687Z,-1.96
2023-01-04T07:00:06.996Z,-1.90
2023-01-04T07:02:34.678Z,-1.85
2023-01-04T07:05:03.020Z,-1.81
2023-01-04T07:07:30.211Z,-1.80
2023-01-04T07:09:57.582Z,-1.73
2023-01-04T07:12:25.003Z,-1.71
2023-01-04T07:14:52.674Z,-1.66
2023-01-04T07:17:22.546Z,-1.61
2023-01-04T07:19:54.051Z,-1.56
2023-01-04T07:22:21.332Z,-1.53
2023-01-04T07:24:49.079Z,-1.47
2023-01-04T07:27:16.543Z,-1.45
2023-01-04T07:29:44.516Z,-1.42
2023-01-04T07:32:14.100Z,-1.39
2023-01-04T07:34:43.069Z,-1.37
2023-01-04T07:37:10.504Z,-1.32
2023-01-04T07:39:37.946Z,-1.28
2023-01-04T07:42:05.087Z,-1.12
2023-01-04T07:44:32.440Z,-1.00
2023-01-04T07:46:59.978Z,-0.85
2023-01-04T07:49:27.470Z,-0.79
2023-01-04T07:51:54.814Z,-0.71
2023-01-04T07:54:24.599Z,-0.60
2023-01-04T07:56:51.745Z,-0.47
2023-01-04T07:59:20.768Z,-0.34
2023-01-04T08:01:48.938Z,-0.21
2023-01-04T08:04:16.889Z,-0.10
2023-01-04T08:06:46.860Z,0.02
2023-01-04T08:09:14.461Z,0.09
2023-01-04T08:11:41.869Z,0.15
2023-01-04T08:14:09.937Z,0.26
2023-01-04T08:16:39.507Z,0.34
2023-01-04T08:19:18.347Z,0.44
2023-01-04T08:21:46.107Z,0.53
2023-01-04T08:24:16.268Z,0.62
2023-01-04T08:26:44.416Z,0.69
2023-01-04T08:29:13.512Z,0.78
2023-01-04T08:31:40.966Z,0.87
2023-01-04T08:34:09.991Z,0.98
2023-01-04T08:36:46.708Z,1.05
2023-01-04T08:39:14.445Z,1.12
2023-01-04T08:42:14.313Z,1.24
2023-01-04T08:44:46.584Z,1.26
2023-01-04T08:47:13.720Z,1.36
2023-01-04T08:49:41.810Z,1.41
2023-01-04T08:52:10.069Z,1.53
2023-01-04T08:54:37.421Z,1.64
2023-01-04T08:57:04.736Z,1.70
2023-01-04T08:59:32.205Z,1.82
2023-01-04T09:02:05.346Z,1.95
2023-01-04T09:04:33.460Z,2.02
2023-01-04T09:07:00.709Z,2.15
2023-01-04T09:09:30.181Z,2.25
2023-01-04T09:11:57.448Z,2.30
2023-01-04T09:14:24.749Z,2.42
2023-01-04T09:16:51.888Z,2.46
2023-01-04T09:19:22.132Z,2.52
2023-01-04T09:21:49.930Z,2.60
2023-01-04T09:24:17.576Z,2.65
2023-01-04T09:26:44.728Z,2.69
2023-01-04T09:29:12.085Z,2.75
2023-01-04T09:31:39.262Z,2.77
2023-01-04T09:34:16.576Z,2.87
2023-01-04T09:36:47.971Z,2.84
2023-01-04T09:39:22.333Z,2.82
2023-01-04T09:41:57.234Z,2.79
2023-01-04T09:44:46.283Z,2.84
2023-01-04T09:47:39.903Z,2.91
2023-01-04T09:50:16.610Z,2.92
2023-01-04T09:52:56.245Z,2.97
2023-01-04T09:55:37.092Z,3.02
2023-01-04T09:58:22.584Z,2.84
2023-01-04T10:01:12.920Z,3.17
2023-01-04T10:03:45.743Z,3.14
2023-01-04T10:06:15.878Z,3.16
2023-01-04T10:08:43.762Z,3.23
2023-01-04T10:11:46.436Z,3.27
2023-01-04T10:14:39.663Z,3.32
2023-01-04T10:17:13.487Z,3.33
2023-01-04T10:23:18.500Z,3.46
2023-01-04T10:25:54.783Z,3.50
2023-01-04T10:28:27.300Z,3.51
2023-01-04T10:31:00.072Z,3.65
2023-01-04T10:33:49.874Z,3.74
2023-01-04T10:36:22.513Z,3.84
2023-01-04T10:38:57.624Z,3.84
2023-01-04T10:41:27.209Z,3.91
2023-01-04T10:44:16.648Z,3.99
2023-01-04T10:47:05.278Z,4.10
2023-01-04T10:49:50.146Z,4.16
2023-01-04T10:52:20.894Z,4.26
2023-01-04T10:55:13.823Z,4.32
2023-01-04T10:57:52.956Z,4.43
2023-01-04T11:00:28.044Z,4.49
2023-01-04T11:03:08.217Z,4.58
2023-01-04T11:05:45.922Z,4.68
2023-01-04T11:08:17.367Z,4.78
2023-01-04T11:10:47.786Z,4.83
2023-01-04T11:13:14.903Z,4.90
2023-01-04T11:15:43.430Z,4.92
2023-01-04T11:18:14.039Z,4.90
2023-01-04T11:20:41.796Z,4.93
2023-01-04T11:23:21.310Z,4.97
2023-01-04T11:26:07.361Z,4.90
2023-01-04T11:28:46.468Z,4.93
2023-01-04T11:31:41.816Z,4.78
2023-01-04T11:34:09.011Z,4.83
2023-01-04T11:36:42.599Z,4.82
2023-01-04T11:39:26.051Z,4.80
2023-01-04T11:42:04.433Z,4.75
2023-01-04T11:44:35.857Z,4.71
2023-01-04T11:47:06.234Z,4.74
2023-01-04T11:49:37.646Z,4.72
2023-01-04T11:52:05.747Z,4.70
2023-01-04T11:54:32.855Z,4.63
2023-01-04T11:57:12.004Z,4.62
2023-01-04T11:59:39.722Z,4.59
2023-01-04T12:02:35.157Z,4.54
2023-01-04T12:05:21.261Z,4.51
2023-01-04T12:07:53.755Z,4.48
2023-01-04T12:10:24.660Z,4.42
2023-01-04T12:12:52.596Z,4.52
2023-01-04T12:15:37.951Z,4.51
2023-01-04T12:18:16.095Z,4.55
2023-01-04T12:20:43.612Z,4.47
2023-01-04T12:23:12.379Z,4.50
2023-01-04T12:25:44.003Z,4.53
2023-01-04T12:28:33.961Z,4.56
2023-01-04T12:31:20.604Z,4.63
2023-01-04T12:33:57.467Z,4.63
2023-01-04T12:36:45.773Z,4.66
2023-01-04T12:39:15.737Z,4.63
2023-01-04T12:42:00.791Z,4.64
2023-01-04T12:44:47.062Z,4.65
2023-01-04T12:47:39.044Z,4.64
2023-01-04T12:50:19.415Z,4.60
2023-01-04T12:53:11.256Z,4.51
2023-01-04T12:55:43.842Z,4.54
2023-01-04T13:01:27.554Z,4.54
2023-01-04T13:04:05.227Z,4.52
2023-01-04T13:06:39.487Z,4.59
2023-01-04T13:09:21.953Z,4.51
2023-01-04T13:12:08.993Z,4.54
2023-01-04T13:14:51.474Z,4.52
2023-01-04T13:17:24.346Z,4.53
2023-01-04T13:19:51.926Z,4.49
2023-01-04T13:22:29.198Z,4.48
2023-01-04T13:24:59.465Z,4.42
2023-01-04T13:27:27.945Z,4.45
2023-01-04T13:29:55.318Z,4.50
2023-01-04T13:32:32.014Z,4.49
2023-01-04T13:35:13.985Z,4.47
2023-01-04T13:37:46.728Z,4.53
2023-01-04T13:40:13.905Z,4.55
2023-01-04T13:42:43.872Z,4.52
2023-01-04T13:45:29.751Z,4.56
2023-01-04T13:47:59.466Z,4.55
2023-01-04T13:50:47.173Z,4.50
2023-01-04T13:53:23.982Z,4.59
2023-01-04T13:55:53.847Z,4.56
2023-01-04T13:58:26.395Z,4.63
2023-01-04T14:00:58.178Z,4.64
2023-01-04T14:03:31.705Z,4.65
2023-01-04T14:06:11.035Z,4.70
2023-01-04T14:08:53.305Z,4.69
2023-01-04T14:11:51.709Z,4.66
2023-01-04T14:14:46.479Z,4.68
2023-01-04T14:17:28.000Z,4.75
2023-01-04T14:19:59.977Z,4.82
2023-01-04T14:22:47.586Z,4.84
2023-01-04T14:25:34.026Z,4.86
2023-01-04T14:28:29.385Z,4.88
2023-01-04T14:31:00.163Z,4.89
2023-01-04T14:33:41.971Z,4.95
2023-01-04T14:36:12.219Z,4.99
2023-01-04T14:38:58.467Z,5.00
2023-01-04T14:41:57.744Z,5.03
2023-01-04T14:44:28.658Z,5.10
2023-01-04T14:46:58.215Z,5.11
2023-01-04T14:49:27.990Z,5.08
2023-01-04T14:52:00.525Z,5.10
2023-01-04T14:54:29.738Z,5.13
2023-01-04T14:56:58.780Z,4.98
2023-01-04T14:59:26.940Z,4.92
2023-01-04T15:01:55.888Z,4.88
2023-01-04T15:04:23.354Z,4.85
2023-01-04T15:06:54.862Z,4.83
2023-01-04T15:09:22.631Z,4.81
2023-01-04T15:11:50.291Z,4.78
2023-01-04T15:14:17.590Z,4.82
2023-01-04T15:16:45.736Z,4.78
2023-01-04T15:19:13.098Z,4.80
2023-01-04T15:21:41.736Z,4.83
2023-01-04T15:24:10.464Z,4.80
2023-01-04T15:26:39.518Z,4.84
2023-01-04T15:29:08.636Z,4.83
2023-01-04T15:31:40.046Z,4.82
2023-01-04T15:34:09.077Z,4.89
2023-01-04T15:36:39.489Z,4.93
2023-01-04T15:39:07.676Z,4.92
2023-01-04T15:41:53.754Z,4.92
2023-01-04T15:44:20.897Z,4.98
2023-01-04T15:46:48.659Z,5.02
2023-01-04T15:49:17.859Z,5.03
2023-01-04T15:51:46.471Z,5.04
2023-01-04T15:54:14.337Z,5.11
2023-01-04T15:56:41.961Z,5.16
2023-01-04T15:59:09.272Z,5.19
2023-01-04T16:01:37.132Z,5.16
2023-01-04T16:04:06.626Z,5.15
2023-01-04T16:06:34.352Z,5.15
2023-01-04T16:09:02.121Z,5.15
2023-01-04T16:11:30.141Z,5.06
2023-01-04T16:13:58.216Z,5.03
2023-01-04T16:16:30.658Z,4.94
2023-01-04T16:18:58.333Z,4.93
2023-01-04T16:21:28.272Z,4.87
2023-01-04T16:24:04.196Z,4.80
2023-01-04T16:26:34.868Z,4.80
2023-01-04T16:29:03.046Z,4.74
2023-01-04T16:31:34.942Z,4.71
2023-01-04T16:34:02.666Z,4.74
2023-01-04T16:36:30.604Z,4.66
2023-01-04T16:38:58.053Z,4.65
2023-01-04T16:41:25.788Z,4.61
2023-01-04T16:43:55.583Z,4.68
2023-01-04T16:46:28.142Z,4.64
2023-01-04T16:48:57.991Z,4.63
2023-01-04T16:51:28.090Z,4.62
2023-01-04T16:53:56.040Z,4.57
2023-01-04T16:56:24.425Z,4.64
2023-01-04T16:58:52.518Z,4.64
2023-01-04T17:01:22.507Z,4.60
2023-01-04T17:03:51.054Z,4.69
2023-01-04T17:06:20.673Z,4.55
2023-01-04T17:08:50.103Z,4.56
2023-01-04T17:14:16.013Z,4.59
2023-01-04T17:16:44.217Z,4.59
2023-01-04T17:19:12.142Z,4.59
2023-01-04T17:21:39.630Z,4.58
2023-01-04T17:24:07.407Z,4.55
2023-01-04T17:26:35.344Z,4.58
2023-01-04T17:29:03.180Z,4.55
2023-01-04T17:31:33.563Z,4.62
2023-01-04T17:34:01.357Z,4.64
2023-01-04T17:36:29.087Z,4.65
2023-01-04T17:38:58.358Z,4.66
2023-01-04T17:41:27.627Z,4.64
2023-01-04T17:44:06.223Z,4.64
2023-01-04T17:46:37.537Z,4.69
2023-01-04T17:49:27.997Z,4.69
2023-01-04T17:51:57.571Z,4.69
2023-01-04T17:54:25.843Z,4.66
2023-01-04T17:56:53.878Z,4.68
2023-01-04T17:59:21.182Z,4.69
2023-01-04T18:01:49.372Z,4.69
2023-01-04T18:04:17.104Z,4.73
2023-01-04T18:06:45.039Z,4.70
2023-01-04T18:09:15.562Z,4.73
2023-01-04T18:11:46.076Z,4.68
2023-01-04T18:14:14.682Z,4.63
2023-01-04T18:17:00.591Z,4.71
2023-01-04T18:19:30.149Z,4.69
2023-01-04T18:21:58.321Z,4.69
2023-01-04T18:24:41.991Z,4.66
2023-01-04T18:27:23.064Z,4.64
2023-01-04T18:29:51.929Z,4.65
2023-01-04T18:32:20.979Z,4.63
2023-01-04T18:34:48.835Z,4.64
2023-01-04T18:37:18.777Z,4.63
2023-01-04T18:39:47.760Z,4.66
2023-01-04T18:42:15.706Z,4.66
2023-01-04T18:44:48.343Z,4.61
2023-01-04T18:47:20.796Z,4.65
2023-01-04T18:49:50.042Z,4.68
2023-01-04T18:52:18.534Z,4.70
2023-01-04T18:54:48.072Z,4.73
2023-01-04T18:57:15.958Z,4.72
2023-01-04T18:59:43.301Z,4.71
2023-01-04T19:02:16.971Z,4.73
2023-01-04T19:04:44.906Z,4.74
2023-01-04T19:07:12.924Z,4.74
2023-01-04T19:09:40.451Z,4.76
2023-01-04T19:12:08.012Z,4.76
2023-01-04T19:14:35.346Z,4.75
2023-01-04T19:17:03.105Z,4.79
2023-01-04T19:19:30.348Z,4.83
2023-01-04T19:21:58.105Z,4.92
2023-01-04T19:24:25.404Z,4.95
2023-01-04T19:26:55.147Z,4.97
2023-01-04T19:29:22.542Z,4.94
2023-01-04T19:31:50.082Z,4.97
2023-01-04T19:34:17.433Z,5.00
2023-01-04T19:36:45.103Z,5.05
2023-01-04T19:39:12.519Z,5.01
2023-01-04T19:41:40.162Z,5.05
2023-01-04T19:44:10.879Z,5.05
2023-01-04T19:46:39.490Z,5.05
2023-01-04T19:49:14.270Z,5.08
2023-01-04T19:51:45.487Z,5.16
2023-01-04T19:54:13.660Z,5.19
2023-01-04T19:56:41.790Z,5.14
2023-01-04T19:59:09.847Z,5.17
2023-01-04T20:01:37.578Z,5.20
2023-01-04T20:04:05.169Z,5.18
2023-01-04T20:06:33.399Z,5.14
2023-01-04T20:09:01.036Z,5.18
2023-01-04T20:11:29.529Z,5.22
2023-01-04T20:13:56.959Z,5.23
2023-01-04T20:16:24.915Z,5.28
2023-01-04T20:18:57.898Z,5.33
2023-01-04T20:21:25.781Z,5.31
2023-01-04T20:23:53.255Z,5.33
2023-01-04T20:26:21.155Z,5.35
2023-01-04T20:28:48.839Z,5.36
2023-01-04T20:31:17.568Z,5.30
2023-01-04T20:33:45.684Z,5.35
2023-01-04T20:36:22.720Z,5.37
2023-01-04T20:38:50.969Z,5.38
2023-01-04T20:41:21.463Z,5.40
2023-01-04T20:43:49.920Z,5.40
2023-01-04T20:46:23.614Z,5.44
2023-01-04T20:48:51.349Z,5.43
2023-01-04T20:51:24.860Z,5.46
2023-01-04T20:53:52.337Z,5.52
2023-01-04T20:56:25.079Z,5.51
2023-01-04T20:58:53.272Z,5.46
2023-01-04T21:01:22.389Z,5.52
2023-01-04T21:03:50.043Z,5.57
2023-01-04T21:06:19.108Z,5.61
2023-01-04T21:08:47.401Z,5.66
2023-01-04T21:11:15.473Z,5.69
2023-01-04T21:13:43.621Z,5.69
2023-01-04T21:16:12.794Z,5.70
2023-01-04T21:18:40.191Z,5.72
2023-01-04T21:21:09.758Z,5.77
2023-01-04T21:23:38.658Z,5.75
2023-01-04T21:26:25.586Z,5.75
2023-01-04T21:28:52.913Z,5.77
2023-01-04T21:31:24.304Z,5.81
2023-01-04T21:33:52.597Z,5.85
2023-01-04T21:36:22.837Z,5.84
2023-01-04T21:38:58.009Z,5.87
2023-01-04T21:41:26.348Z,5.88
2023-01-04T21:43:56.103Z,5.92
2023-01-04T21:46:24.698Z,5.96
2023-01-04T21:48:59.353Z,5.88
2023-01-04T21:51:26.923Z,5.95
2023-01-04T21:53:54.695Z,5.98
2023-01-04T21:56:24.281Z,5.96
2023-01-04T21:58:52.868Z,5.96
2023-01-04T22:01:23.739Z,5.99
2023-01-04T22:03:51.886Z,6.05
2023-01-04T22:06:20.911Z,6.07
2023-01-04T22:08:48.532Z,6.02
2023-01-04T22:11:16.282Z,6.05
2023-01-04T22:13:43.921Z,6.10
2023-01-04T22:16:16.185Z,6.14
2023-01-04T22:18:50.180Z,6.14
2023-01-04T22:21:20.490Z,6.12
2023-01-04T22:23:47.745Z,6.20
2023-01-04T22:26:15.488Z,6.19
2023-01-04T22:28:42.777Z,6.17
2023-01-04T22:31:12.241Z,6.13
2023-01-04T22:33:39.940Z,6.18
2023-01-04T22:36:12.667Z,6.16
2023-01-04T22:38:46.008Z,6.20
2023-01-04T22:41:16.317Z,6.26
2023-01-04T22:43:44.118Z,6.33
2023-01-04T22:46:14.380Z,6.32
2023-01-04T22:48:41.842Z,6.35
2023-01-04T22:51:11.979Z,6.33
2023-01-04T22:53:39.886Z,6.30
2023-01-04T22:56:21.908Z,6.33
2023-01-04T22:58:54.769Z,6.36
2023-01-04T23:01:28.571Z,6.35
2023-01-04T23:03:57.597Z,6.32
2023-01-04T23:06:26.733Z,6.30
2023-01-04T23:08:55.989Z,6.36
2023-01-04T23:11:23.998Z,6.34
2023-01-04T23:13:51.796Z,6.30
2023-01-04T23:16:20.027Z,6.39
2023-01-04T23:18:47.381Z,6.35
2023-01-04T23:21:15.560Z,6.45
2023-01-04T23:23:43.817Z,6.45
2023-01-04T23:26:17.796Z,6.50
2023-01-04T23:28:46.584Z,6.43
2023-01-04T23:31:16.161Z,6.54
2023-01-04T23:33:43.532Z,6.51
2023-01-04T23:36:19.406Z,6.57
2023-01-04T23:38:51.335Z,6.59
2023-01-04T23:41:19.976Z,6.66
2023-01-04T23:43:47.731Z,6.67
2023-01-04T23:46:17.448Z,6.70
2023-01-04T23:48:44.842Z,6.67
2023-01-04T23:51:13.194Z,6.68
2023-01-04T23:53:40.458Z,6.60
2023-01-04T23:56:14.217Z,6.70
2023-01-04T23:58:41.631Z,6.73
